Latest Coastal Weather Observations for Port Hedland

IDW60701

Issued at 2:53 pm WST Tuesday 25 July 2017 (issued every 10 minutes, with the page automatically refreshed every 10 minutes)

About coastal observations | Map of coastal stations | Coastal observations for WA | Marine services | Other Formats
Station Details ID: 004032 Name: PORT HEDLAND AIRPORT Lat: -20.37 Lon: 118.63 Height: 6.4 m
Data from the previous 72 hours. | See also: Recent months at Port Hedland
Date/Time
WST
Temp
°C
Wind Pressure Rain since
9am
mm
Weather Cloud Vis
km
Sea
Height
m
Swell
Dir  Spd
kts
Gust
kts
hPa Trend Height
m
Period
s
Dir
25/02:30pm 28.8 NNE 16 21 1014.6 - 0.2 - - 10 - - - -
25/02:00pm 29.2 NNE 16 21 1014.7 - 0.2 - - 10 - - - -
25/01:30pm 28.5 NNE 15 20 1014.9 - 0.2 - - 10 - - - -
25/01:00pm 29.3 NNE 15 18 1015.4 - 0.2 - - 10 - - - -
25/12:30pm 32.0 NE 15 21 1015.6 - 0.2 - - 10 - - - -
25/12:00pm 31.6 ENE 14 18 1016.2 - 0.2 - - 10 - - - -
25/11:30am 31.1 E 13 17 1016.7 - 0.2 - - 10 - - - -
25/11:00am 30.2 E 12 16 1017.1 - 0.2 - - 10 - - - -
25/10:30am 29.4 ESE 11 14 1017.6 - 0.2 - - 10 - - - -
25/10:00am 28.4 ESE 9 13 1017.9 - 0.2 - - 10 - - - -
25/09:30am 27.6 ESE 9 11 1018.1 - 0.0 - - 10 - - - -
25/09:00am 25.3 SE 7 9 1017.9 - 0.0 - - 10 - - - -
25/08:30am 22.4 SSE 5 8 1017.7 - 0.0 - - 10 - - - -
25/08:00am 19.5 SE 5 6 1017.4 - 0.0 - - 10 - - - -
25/07:30am 16.5 SE 6 8 1017.1 - 0.0 - - 10 - - - -
25/07:00am 14.9 SSE 7 8 1016.8 - 0.0 - - 10 - - - -
25/06:30am 15.3 S 7 8 1016.6 - 0.0 - - 10 - - - -
25/06:00am 15.5 S 7 9 1016.5 - 0.0 - - 10 - - - -
25/05:30am 14.9 SSW 7 8 1016.4 - 0.0 - - 10 - - - -
25/05:00am 15.8 S 6 8 1016.4 - 0.0 - - 10 - - - -
25/04:30am 15.4 S 5 6 1016.4 - 0.0 - - 10 - - - -
25/04:00am 15.9 S 6 8 1016.3 - 0.0 - - 10 - - - -
25/03:30am 15.8 S 6 7 1016.4 - 0.0 - - 10 - - - -
25/03:00am 15.6 SSW 7 8 1016.5 - 0.0 - - 10 - - - -
25/02:30am 16.4 S 7 9 1016.6 - 0.0 - - 10 - - - -
25/02:00am 17.1 S 8 9 1016.6 - 0.0 - - 10 - - - -
25/01:30am 16.9 SSW 7 8 1016.7 - 0.0 - - 10 - - - -
25/01:00am 16.8 SSW 7 9 1016.8 - 0.0 - - 10 - - - -
25/12:30am 17.3 SSW 6 7 1017.0 - 0.0 - - 10 - - - -
25/12:00am 17.1 SSW 6 6 1017.1 - 0.0 - - 10 - - - -
 
Date/Time
WST
Temp
°C
Wind Pressure Rain since
9am
mm
Weather Cloud Vis
km
Sea
Height
m
Swell
Dir  Spd
kts
Gust
kts
hPa Trend Height
m
Period
s
Dir
24/11:30pm 16.8 SSW 4 5 1017.3 - 0.0 - - 10 - - - -
24/11:00pm 17.1 SSW 4 6 1017.2 - 0.0 - - 10 - - - -
24/10:30pm 17.7 WSW 5 6 1017.2 - 0.0 - - 10 - - - -
24/10:00pm 17.8 W 6 7 1017.1 - 0.0 - - 10 - - - -
24/09:30pm 17.8 WSW 6 6 1017.1 - 0.0 - - 10 - - - -
24/09:00pm 18.6 W 4 5 1017.0 - 0.0 - - 10 - - - -
24/08:30pm 19.0 WNW 4 4 1016.8 - 0.0 - - 10 - - - -
24/08:00pm 19.4 WNW 6 6 1016.7 - 0.0 - - 10 - - - -
24/07:30pm 19.9 WNW 7 8 1016.5 - 0.0 - - 10 - - - -
24/07:00pm 20.1 WNW 7 8 1016.1 - 0.0 - - 10 - - - -
24/06:30pm 20.8 NW 6 6 1015.8 - 0.0 - - 10 - - - -
24/06:00pm 21.9 NW 7 8 1015.5 - 0.0 - - 10 - - - -
24/05:30pm 23.5 NW 8 9 1015.3 - 0.0 - - 10 - - - -
24/05:00pm 25.4 NW 9 11 1015.1 - 0.0 - - 10 - - - -
24/04:30pm 26.7 NW 9 11 1014.8 - 0.0 - - 10 - - - -
24/04:00pm 27.5 NW 9 10 1014.7 - 0.0 - - 10 - - - -
24/03:30pm 27.7 NNW 8 10 1014.6 - 0.0 - - 10 - - - -
24/03:00pm 28.0 NW 9 11 1014.7 - 0.0 - - 10 - - - -
24/02:30pm 27.9 NW 8 11 1014.8 - 0.0 - - 10 - - - -
24/02:00pm 27.9 NNW 7 9 1015.0 - 0.0 - - 10 - - - -
24/01:30pm 27.4 N 8 11 1015.3 - 0.0 - - 10 - - - -
24/01:00pm 27.7 N 8 10 1015.6 - 0.0 - - 10 - - - -
24/12:30pm 28.3 N 8 11 1015.8 - 0.0 - - 10 - - - -
24/12:00pm 28.6 W 6 8 1016.3 - 0.0 - - 10 - - - -
24/11:30am 27.5 S 5 8 1016.8 - 0.0 - - 10 - - - -
24/11:00am 26.6 SSE 5 7 1017.2 - 0.0 - - 10 - - - -
24/10:30am 25.9 SSW 5 9 1017.5 - 0.0 - - 10 - - - -
24/10:00am 25.2 SSW 7 10 1017.6 - 0.0 - - 10 - - - -
24/09:30am 24.2 SSW 10 12 1017.7 - 0.0 - - 10 - - - -
24/09:00am 23.0 SSW 10 14 1017.8 - 0.0 - - 10 - - - -
24/08:30am 21.4 SSW 8 11 1017.5 - 0.0 - - 10 - - - -
24/08:00am 18.7 S 6 7 1017.4 - 0.0 - - 10 - - - -
24/07:30am 16.2 S 6 8 1017.0 - 0.0 - - 10 - - - -
24/07:00am 14.5 S 6 7 1016.8 - 0.0 - - 10 - - - -
24/06:30am 15.0 S 6 8 1016.5 - 0.0 - - 10 - - - -
24/06:00am 15.0 S 6 8 1016.3 - 0.0 - - 10 - - - -
24/05:30am 15.2 S 5 6 1015.8 - 0.0 - - 10 - - - -
24/05:00am 15.5 S 5 6 1016.0 - 0.0 - - 10 - - - -
24/04:30am 16.4 S 7 8 1015.9 - 0.0 - - 10 - - - -
24/04:00am 16.0 SSW 8 11 1015.8 - 0.0 - - 10 - - - -
24/03:30am 16.0 S 6 8 1016.0 - 0.0 - - 10 - - - -
24/03:00am 16.1 S 5 6 1016.2 - 0.0 - - 10 - - - -
24/02:30am 16.1 S 5 6 1016.4 - 0.0 - Partly cloudy 10 - - - -
24/02:00am 16.6 S 4 5 1016.5 - 0.0 - Partly cloudy 10 - - - -
24/01:30am 16.8 S 5 6 1016.5 - 0.0 - Partly cloudy 10 - - - -
24/01:00am 17.4 NW 3 3 1016.6 - 0.0 - Partly cloudy 10 - - - -
24/12:30am 17.5 CALM 0 0 1016.7 - 0.0 - Partly cloudy 10 - - - -
24/12:00am 17.8 CALM 0 0 1016.7 - 0.0 - Mostly clear 10 - - - -
 
Date/Time
WST
Temp
°C
Wind Pressure Rain since
9am
mm
Weather Cloud Vis
km
Sea
Height
m
Swell
Dir  Spd
kts
Gust
kts
hPa Trend Height
m
Period
s
Dir
23/11:30pm 17.6 CALM 0 0 1016.8 - 0.0 - - 10 - - - -
23/11:00pm 18.0 CALM 0 0 1016.8 - 0.0 - - 10 - - - -
23/10:30pm 19.0 CALM 0 0 1016.8 - 0.0 - - 10 - - - -
23/10:00pm 19.0 NW 2 3 1017.0 - 0.0 - - 10 - - - -
23/09:30pm 19.0 NW 2 3 1016.8 - 0.0 - - 10 - - - -
23/09:00pm 19.0 NW 2 3 1016.6 - 0.0 - - 10 - - - -
23/08:30pm 19.5 NW 4 5 1016.5 - 0.0 - Partly cloudy 10 - - - -
23/08:00pm 19.9 NW 4 5 1016.3 - 0.0 - - 10 - - - -
23/07:30pm 20.1 WNW 4 4 1016.0 - 0.0 - - 10 - - - -
23/07:00pm 20.3 NW 5 5 1015.7 - 0.0 - - 10 - - - -
23/06:30pm 20.7 NW 5 6 1015.3 - 0.0 - - 10 - - - -
23/06:00pm 21.3 NNW 5 6 1015.0 - 0.0 - - 10 - - - -
23/05:30pm 22.6 NW 7 8 1014.7 - 0.0 - - 10 - - - -
23/05:00pm 23.6 NNW 7 9 1014.5 - 0.0 - - 10 - - - -
23/04:30pm 23.7 NNW 7 9 1014.3 - 0.0 - - 10 - - - -
23/04:00pm 24.0 NNW 8 10 1014.3 - 0.0 - Partly cloudy 10 - - - -
23/03:30pm 24.7 NNW 9 12 1014.1 - 0.0 - Partly cloudy 10 - - - -
23/03:00pm 24.8 NNW 8 11 1014.3 - 0.0 - Mostly clear 10 - - - -
23/02:30pm 25.3 NNW 9 11 1014.4 - 0.0 - - 10 - - - -
23/02:00pm 25.6 NNW 8 11 1014.7 - 0.0 - - 10 - - - -
23/01:30pm 25.7 N 8 11 1015.0 - 0.0 - - 10 - - - -
23/01:00pm 26.0 N 8 12 1015.4 - 0.0 - Partly cloudy 10 - - - -
23/12:30pm 25.5 N 8 11 1015.7 - 0.0 - - 10 - - - -
23/12:00pm 25.5 NNW 8 14 1016.2 - 0.0 - Mostly clear 10 - - - -
23/11:30am 25.1 NNE 8 11 1016.7 - 0.0 - - 10 - - - -
23/11:00am 24.9 NE 7 10 1017.0 - 0.0 - - 10 - - - -
23/10:30am 24.8 NE 5 8 1017.2 - 0.0 - - 10 - - - -
23/10:00am 24.4 ENE 5 7 1017.3 - 0.0 - - 10 - - - -
23/09:30am 24.4 E 5 7 1017.4 - 0.0 - - 10 - - - -
23/09:00am 23.3 E 6 7 1017.4 - 0.0 - - 10 - - - -
23/08:30am 21.5 ESE 5 7 1017.2 - 0.0 - - 10 - - - -
23/08:00am 19.3 ESE 5 7 1017.0 - 0.0 - - 10 - - - -
23/07:30am 17.1 SE 5 7 1016.7 - 0.0 - - 10 - - - -
23/07:00am 15.6 SE 6 7 1016.4 - 0.0 - - 10 - - - -
23/06:30am 14.6 SE 5 6 1016.1 - 0.0 - - 10 - - - -
23/06:00am 15.6 SE 6 7 1016.0 - 0.0 - - 10 - - - -
23/05:30am 15.7 SE 5 7 1015.8 - 0.0 - - 10 - - - -
23/05:00am 15.8 SE 5 7 1015.8 - 0.0 - - 10 - - - -
23/04:30am 15.4 ESE 4 5 1015.7 - 0.0 - - 10 - - - -
23/04:00am 15.6 SE 4 5 1015.8 - 0.0 - - 10 - - - -
23/03:30am 15.7 SE 4 5 1016.0 - 0.0 - - 10 - - - -
23/03:00am 15.4 SSE 5 6 1016.0 - 0.0 - - 10 - - - -
23/02:30am 15.6 SE 4 5 1016.1 - 0.0 - - 10 - - - -
23/02:00am 15.8 SE 4 4 1016.2 - 0.0 - - 10 - - - -
23/01:30am 16.4 SE 3 3 1016.4 - 0.0 - - 10 - - - -
23/01:00am 17.5 CALM 0 0 1016.3 - 0.0 - - 10 - - - -
23/12:30am 17.7 CALM 0 2 1016.6 - 0.0 - - 10 - - - -
23/12:00am 18.1 NNW 3 3 1016.6 - 0.0 - - 10 - - - -
 
Date/Time
WST
Temp
°C
Wind Pressure Rain since
9am
mm
Weather Cloud Vis
km
Sea
Height
m
Swell
Dir  Spd
kts
Gust
kts
hPa Trend Height
m
Period
s
Dir
22/11:30pm 17.8 NNW 4 5 1016.6 - 0.0 - - 10 - - - -
22/11:00pm 18.1 NW 6 7 1016.7 - 0.0 - - 10 - - - -
22/10:30pm 18.4 NW 6 7 1016.8 - 0.0 - - 10 - - - -
22/10:00pm 18.6 NW 5 6 1016.9 - 0.0 - - 10 - - - -
22/09:30pm 19.3 NNW 3 4 1016.9 - 0.0 - - 10 - - - -
22/09:00pm 19.6 N 3 3 1016.8 - 0.0 - - 10 - - - -
22/08:30pm 20.2 N 3 3 1016.6 - 0.0 - - 10 - - - -
22/08:00pm 21.2 N 3 4 1016.6 - 0.0 - - 10 - - - -
22/07:30pm 21.2 N 3 4 1016.3 - 0.0 - - 10 - - - -
22/07:00pm 21.0 N 4 5 1015.9 - 0.0 - - 10 - - - -
22/06:30pm 21.5 NNW 7 8 1015.5 - 0.0 - - 10 - - - -
22/06:00pm 22.0 NNW 6 8 1015.3 - 0.0 - - 10 - - - -
22/05:30pm 23.1 NNW 9 11 1015.0 - 0.0 - - 10 - - - -
22/05:00pm 24.1 NNW 10 13 1014.7 - 0.0 - - 10 - - - -
22/04:30pm 24.7 NNW 11 13 1014.5 - 0.0 - - 10 - - - -
22/04:00pm 25.8 N 10 13 1014.4 - 0.0 - - 10 - - - -
22/03:30pm 25.8 NNW 10 13 1014.1 - 0.0 - - 10 - - - -
22/03:00pm 26.7 NNW 9 12 1014.1 - 0.0 - - 10 - - - -

Other Formats:

Comma delimited format used in spreadsheet applications
http://www.bom.gov.au/fwo/IDW60701/IDW60701.94312.axf

JavaScript Object Notation format (JSON) in row-major order
http://www.bom.gov.au/fwo/IDW60701/IDW60701.94312.json